createdAt,value
2019-02-26T00:00:26.174Z,64.08
2019-02-26T00:00:58.674Z,64.18
2019-02-26T00:01:30.847Z,63.48
2019-02-26T00:02:02.716Z,63.96
2019-02-26T00:02:34.075Z,63.34
2019-02-26T00:03:05.299Z,62.92
2019-02-26T00:03:36.515Z,63.48
2019-02-26T00:04:07.724Z,62.23
2019-02-26T00:04:39.055Z,61.82
2019-02-26T00:05:10.275Z,61.88
2019-02-26T00:05:41.486Z,61.64
2019-02-26T00:06:12.738Z,61.85
2019-02-26T00:06:47.128Z,62.00
2019-02-26T00:07:18.846Z,61.87
2019-02-26T00:07:51.558Z,61.50
2019-02-26T00:08:24.608Z,61.18
2019-02-26T00:08:58.224Z,61.44
2019-02-26T00:09:30.490Z,60.82
2019-02-26T00:10:04.421Z,60.70
2019-02-26T00:10:37.132Z,60.76
2019-02-26T00:11:08.507Z,60.86
2019-02-26T00:11:40.473Z,60.68
2019-02-26T00:12:11.667Z,61.17
2019-02-26T00:12:42.969Z,60.71
2019-02-26T00:13:14.173Z,61.07
2019-02-26T00:13:45.388Z,61.64
2019-02-26T00:14:17.849Z,61.21
2019-02-26T00:14:50.179Z,60.70
2019-02-26T00:15:22.660Z,60.84
2019-02-26T00:15:53.887Z,60.61
2019-02-26T00:16:25.146Z,60.50
2019-02-26T00:16:56.349Z,60.58
2019-02-26T00:17:27.558Z,60.74
2019-02-26T00:17:58.827Z,60.69
2019-02-26T00:18:30.033Z,60.79
2019-02-26T00:19:04.622Z,60.86
2019-02-26T00:19:34.238Z,61.08
2019-02-26T00:20:05.796Z,61.45
2019-02-26T00:20:39.642Z,61.20
2019-02-26T00:21:11.336Z,61.54
2019-02-26T00:21:43.119Z,61.16
2019-02-26T00:22:15.895Z,61.26
2019-02-26T00:22:48.408Z,61.43
2019-02-26T00:23:21.486Z,61.44
2019-02-26T00:23:53.145Z,61.50
2019-02-26T00:24:24.442Z,61.06
2019-02-26T00:24:55.641Z,60.98
2019-02-26T00:25:26.869Z,60.98
2019-02-26T00:25:58.076Z,61.25
2019-02-26T00:26:29.287Z,61.32
2019-02-26T00:27:01.465Z,61.00
2019-02-26T00:27:35.147Z,61.14
2019-02-26T00:28:06.477Z,60.96
2019-02-26T00:28:39.091Z,61.22
2019-02-26T00:29:10.623Z,61.28
2019-02-26T00:29:41.812Z,61.30
2019-02-26T00:30:14.325Z,61.40
2019-02-26T00:30:45.979Z,61.44
2019-02-26T00:31:19.135Z,61.08
2019-02-26T00:31:50.777Z,61.25
2019-02-26T00:32:23.193Z,61.00
2019-02-26T00:32:55.436Z,61.02
2019-02-26T00:33:28.953Z,61.07
2019-02-26T00:34:00.295Z,61.27
2019-02-26T00:34:32.345Z,60.60
2019-02-26T00:35:04.422Z,60.96
2019-02-26T00:35:35.646Z,60.83
2019-02-26T00:36:08.924Z,60.53
2019-02-26T00:36:39.832Z,60.86
2019-02-26T00:37:11.073Z,60.85
2019-02-26T00:37:44.050Z,60.62
2019-02-26T00:38:16.038Z,60.57
2019-02-26T00:38:48.155Z,60.80
2019-02-26T00:39:20.612Z,60.69
2019-02-26T00:39:54.176Z,60.57
2019-02-26T00:40:25.354Z,60.48
2019-02-26T00:40:57.814Z,60.86
2019-02-26T00:41:31.265Z,60.74
2019-02-26T00:42:03.219Z,61.31
2019-02-26T00:42:36.038Z,61.12
2019-02-26T00:43:07.477Z,60.22
2019-02-26T00:43:38.683Z,60.16
2019-02-26T00:44:09.886Z,60.12
2019-02-26T00:44:41.147Z,60.19
2019-02-26T00:45:12.329Z,60.30
2019-02-26T00:45:43.587Z,60.21
2019-02-26T00:46:14.793Z,60.38
2019-02-26T00:46:45.997Z,60.47
2019-02-26T00:47:17.192Z,60.41
2019-02-26T00:47:48.411Z,60.42
2019-02-26T00:48:19.612Z,60.36
2019-02-26T00:48:50.835Z,60.31
2019-02-26T00:49:23.704Z,60.52
2019-02-26T00:49:55.053Z,60.63
2019-02-26T00:50:27.991Z,60.59
2019-02-26T00:51:01.048Z,60.51
2019-02-26T00:51:32.162Z,60.55
2019-02-26T00:52:04.016Z,60.71
2019-02-26T00:52:37.452Z,60.91
2019-02-26T00:53:09.320Z,61.04
2019-02-26T00:53:40.538Z,61.17
2019-02-26T00:54:11.741Z,61.16
2019-02-26T00:54:43.025Z,61.07
2019-02-26T00:55:14.249Z,61.30
2019-02-26T00:55:45.456Z,61.08
2019-02-26T00:56:16.666Z,60.53
2019-02-26T00:56:47.863Z,60.33
2019-02-26T00:57:19.083Z,60.13
2019-02-26T00:57:50.299Z,60.08
2019-02-26T00:58:21.547Z,60.56
2019-02-26T00:58:52.773Z,59.96
2019-02-26T00:59:23.989Z,59.52
2019-02-26T00:59:55.206Z,59.09
2019-02-26T01:00:28.424Z,59.43
2019-02-26T01:00:59.415Z,58.56
2019-02-26T01:01:30.624Z,58.59
2019-02-26T01:02:01.843Z,58.68
2019-02-26T01:02:33.054Z,58.36
2019-02-26T01:03:05.965Z,58.10
2019-02-26T01:03:37.251Z,57.94
2019-02-26T01:04:08.475Z,58.25
2019-02-26T01:04:41.455Z,57.57
2019-02-26T01:05:13.146Z,57.40
2019-02-26T01:05:45.618Z,57.52
2019-02-26T01:06:16.822Z,57.50
2019-02-26T01:06:48.035Z,57.48
2019-02-26T01:07:21.219Z,57.55
2019-02-26T01:07:54.236Z,57.76
2019-02-26T01:08:25.127Z,57.41
2019-02-26T01:08:56.374Z,57.90
2019-02-26T01:09:29.364Z,57.46
2019-02-26T01:10:00.515Z,57.48
2019-02-26T01:10:31.778Z,57.44
2019-02-26T01:11:03.933Z,58.09
2019-02-26T01:11:35.906Z,57.27
2019-02-26T01:12:09.008Z,57.52
2019-02-26T01:12:40.971Z,57.42
2019-02-26T01:13:12.964Z,57.47
2019-02-26T01:13:44.208Z,57.98
2019-02-26T01:14:15.869Z,57.61
2019-02-26T01:14:50.418Z,57.50
2019-02-26T01:15:21.622Z,57.83
2019-02-26T01:15:52.838Z,57.46
2019-02-26T01:16:24.042Z,57.66
2019-02-26T01:16:55.264Z,57.57
2019-02-26T01:17:26.477Z,57.49
2019-02-26T01:17:58.926Z,57.42
2019-02-26T01:18:30.622Z,57.52
2019-02-26T01:19:04.634Z,57.48
2019-02-26T01:19:36.940Z,57.45
2019-02-26T01:20:08.816Z,57.52
2019-02-26T01:20:40.055Z,57.72
2019-02-26T01:21:11.277Z,58.21
2019-02-26T01:21:42.477Z,57.88
2019-02-26T01:22:13.731Z,58.12
2019-02-26T01:22:45.565Z,58.63
2019-02-26T01:23:21.061Z,58.80
2019-02-26T01:23:49.829Z,58.26
2019-02-26T01:24:21.843Z,58.11
2019-02-26T01:24:54.278Z,58.13
2019-02-26T01:25:26.888Z,58.19
2019-02-26T01:25:58.092Z,58.46
2019-02-26T01:26:29.296Z,58.20
2019-02-26T01:27:00.491Z,58.45
2019-02-26T01:27:31.753Z,58.40
2019-02-26T01:28:02.981Z,58.99
2019-02-26T01:28:34.182Z,59.33
2019-02-26T01:29:05.542Z,58.47
2019-02-26T01:29:36.739Z,58.60
2019-02-26T01:30:07.939Z,59.09
2019-02-26T01:30:39.179Z,58.79
2019-02-26T01:31:10.396Z,58.03
2019-02-26T01:31:41.689Z,57.73
2019-02-26T01:32:13.802Z,57.82
2019-02-26T01:32:45.855Z,57.97
2019-02-26T01:33:17.069Z,58.04
2019-02-26T01:33:49.079Z,58.14
2019-02-26T01:34:21.250Z,58.14
2019-02-26T01:34:52.454Z,58.29
2019-02-26T01:35:23.680Z,58.36
2019-02-26T01:35:55.491Z,58.52
2019-02-26T01:36:27.871Z,58.69
2019-02-26T01:37:00.829Z,59.04
2019-02-26T01:37:34.289Z,59.44
2019-02-26T01:38:05.137Z,59.13
2019-02-26T01:38:39.508Z,59.28
2019-02-26T01:39:11.499Z,59.47
2019-02-26T01:39:43.017Z,59.47
2019-02-26T01:40:18.419Z,59.86
2019-02-26T01:40:51.093Z,59.96
2019-02-26T01:41:23.249Z,60.00
2019-02-26T01:41:56.256Z,60.38
2019-02-26T01:42:27.674Z,60.37
2019-02-26T01:43:02.589Z,60.58
2019-02-26T01:43:32.955Z,60.92
2019-02-26T01:44:04.181Z,60.98
2019-02-26T01:44:37.369Z,61.09
2019-02-26T01:45:08.335Z,61.21
2019-02-26T01:45:39.583Z,61.39
2019-02-26T01:46:11.698Z,61.58
2019-02-26T01:46:43.748Z,61.86
2019-02-26T01:47:17.062Z,62.02
2019-02-26T01:47:50.016Z,62.22
2019-02-26T01:48:20.848Z,62.51
2019-02-26T01:48:52.963Z,62.61
2019-02-26T01:49:26.609Z,63.22
2019-02-26T01:49:59.379Z,63.18
2019-02-26T01:50:33.239Z,62.43
2019-02-26T01:51:03.776Z,62.72
2019-02-26T01:51:34.972Z,62.30
2019-02-26T01:52:07.985Z,62.28
2019-02-26T01:52:39.104Z,61.07
2019-02-26T01:53:12.003Z,61.03
2019-02-26T01:53:46.419Z,60.64
2019-02-26T01:54:16.784Z,60.79
2019-02-26T01:54:48.119Z,61.07
2019-02-26T01:55:20.762Z,60.91
2019-02-26T01:55:52.287Z,61.21
2019-02-26T01:56:23.485Z,60.96
2019-02-26T01:56:54.701Z,61.33
2019-02-26T01:57:27.698Z,61.27
2019-02-26T01:57:59.318Z,59.89
2019-02-26T01:58:33.446Z,60.80
2019-02-26T01:59:03.609Z,60.91
2019-02-26T01:59:36.119Z,61.33
2019-02-26T02:00:07.320Z,61.02
2019-02-26T02:00:38.676Z,59.76
2019-02-26T02:01:14.036Z,59.35
2019-02-26T02:01:46.469Z,59.73
2019-02-26T02:02:20.087Z,59.53
2019-02-26T02:02:50.237Z,58.58
2019-02-26T02:03:23.020Z,58.28
2019-02-26T02:03:56.212Z,58.73
2019-02-26T02:04:27.380Z,58.54
2019-02-26T02:04:59.771Z,59.29
2019-02-26T02:05:31.571Z,57.77
2019-02-26T02:06:02.804Z,57.60
2019-02-26T02:06:34.926Z,57.19
2019-02-26T02:07:06.996Z,57.85
2019-02-26T02:07:38.194Z,56.91
2019-02-26T02:08:13.063Z,57.06
2019-02-26T02:08:45.880Z,57.20
2019-02-26T02:09:18.690Z,56.57
2019-02-26T02:09:51.352Z,56.55
2019-02-26T02:10:22.859Z,56.92
2019-02-26T02:10:56.533Z,57.13
2019-02-26T02:11:30.576Z,56.13
2019-02-26T02:12:02.039Z,56.08
2019-02-26T02:12:34.397Z,56.57
2019-02-26T02:13:07.154Z,56.84
2019-02-26T02:13:41.262Z,55.58
2019-02-26T02:14:12.752Z,55.29
2019-02-26T02:14:44.729Z,55.69
2019-02-26T02:15:18.830Z,55.62
2019-02-26T02:15:48.904Z,55.15
2019-02-26T02:16:19.935Z,54.20
2019-02-26T02:16:51.139Z,54.33
2019-02-26T02:17:22.348Z,54.62
2019-02-26T02:17:56.643Z,54.36
2019-02-26T02:18:28.121Z,54.60
2019-02-26T02:19:00.043Z,55.02
2019-02-26T02:19:32.630Z,55.23
2019-02-26T02:20:07.708Z,55.11
2019-02-26T02:20:36.830Z,54.69
2019-02-26T02:21:08.038Z,54.24
2019-02-26T02:21:39.249Z,54.68
2019-02-26T02:22:12.200Z,54.62
2019-02-26T02:22:44.413Z,54.82
2019-02-26T02:23:15.891Z,55.75
2019-02-26T02:23:49.211Z,55.56
2019-02-26T02:24:22.272Z,55.28
2019-02-26T02:24:53.975Z,55.77
2019-02-26T02:25:29.041Z,55.85
2019-02-26T02:26:02.143Z,56.44
2019-02-26T02:26:31.860Z,55.00
2019-02-26T02:27:03.068Z,54.76
2019-02-26T02:27:34.310Z,54.37
2019-02-26T02:28:05.500Z,54.21
2019-02-26T02:28:36.705Z,55.45
2019-02-26T02:29:07.921Z,55.49
2019-02-26T02:29:41.837Z,54.46
2019-02-26T02:30:18.517Z,55.16
2019-02-26T02:30:45.029Z,54.08
2019-02-26T02:31:16.302Z,54.84
2019-02-26T02:31:47.504Z,54.35
2019-02-26T02:32:20.972Z,53.43
2019-02-26T02:32:56.364Z,53.46
2019-02-26T02:33:26.762Z,53.54
2019-02-26T02:33:57.580Z,53.08
2019-02-26T02:34:29.591Z,53.55
2019-02-26T02:35:04.329Z,54.78
2019-02-26T02:35:34.714Z,54.14
2019-02-26T02:36:05.944Z,52.70
2019-02-26T02:36:37.155Z,53.13
2019-02-26T02:37:08.400Z,53.81
2019-02-26T02:37:39.603Z,55.04
2019-02-26T02:38:10.883Z,54.68
2019-02-26T02:38:42.117Z,54.14
2019-02-26T02:39:15.740Z,53.94
2019-02-26T02:39:46.292Z,53.47
2019-02-26T02:40:17.494Z,53.71
2019-02-26T02:40:51.188Z,53.82
2019-02-26T02:41:21.660Z,54.73
2019-02-26T02:41:54.914Z,55.78
2019-02-26T02:42:25.856Z,56.72
2019-02-26T02:42:57.080Z,55.54
2019-02-26T02:43:28.293Z,55.10
2019-02-26T02:43:59.576Z,55.40
2019-02-26T02:44:30.754Z,55.24
2019-02-26T02:45:01.970Z,55.82
2019-02-26T02:45:33.179Z,55.47
2019-02-26T02:46:04.395Z,56.23
2019-02-26T02:46:36.689Z,56.32
2019-02-26T02:47:09.337Z,56.73
2019-02-26T02:47:41.503Z,57.12
2019-02-26T02:48:14.194Z,58.63
2019-02-26T02:48:45.566Z,57.90
2019-02-26T02:49:17.966Z,58.38
2019-02-26T02:49:49.249Z,57.87
2019-02-26T02:50:20.465Z,57.31
2019-02-26T02:50:51.690Z,57.34
2019-02-26T02:51:22.915Z,57.59
2019-02-26T02:51:54.165Z,57.73
2019-02-26T02:52:27.065Z,58.26
2019-02-26T02:52:59.654Z,58.65
2019-02-26T02:53:32.341Z,58.18
2019-02-26T02:54:03.667Z,58.75
2019-02-26T02:54:34.892Z,58.62
2019-02-26T02:55:06.875Z,58.95
2019-02-26T02:55:44.261Z,58.93
2019-02-26T02:56:15.343Z,58.66
2019-02-26T02:56:47.194Z,59.03
2019-02-26T02:57:18.586Z,60.26
2019-02-26T02:57:52.658Z,60.85
2019-02-26T02:58:23.927Z,59.74
2019-02-26T02:58:55.657Z,60.11
2019-02-26T02:59:28.319Z,59.74
2019-02-26T03:00:02.629Z,59.50
2019-02-26T03:00:34.455Z,58.75
2019-02-26T03:01:05.788Z,59.78
2019-02-26T03:01:37.003Z,59.73
2019-02-26T03:02:09.408Z,59.82
2019-02-26T03:02:43.183Z,58.96
2019-02-26T03:03:14.172Z,58.73
2019-02-26T03:03:47.633Z,58.27
2019-02-26T03:04:19.781Z,57.51
2019-02-26T03:04:51.232Z,57.50
2019-02-26T03:05:22.442Z,55.79
2019-02-26T03:05:53.656Z,55.58
2019-02-26T03:06:27.310Z,56.27
2019-02-26T03:06:58.780Z,55.76
2019-02-26T03:07:30.786Z,56.35
2019-02-26T03:08:01.983Z,56.68
2019-02-26T03:08:33.181Z,56.49
2019-02-26T03:09:04.404Z,56.08
2019-02-26T03:09:37.723Z,56.47
2019-02-26T03:10:09.642Z,56.67
2019-02-26T03:10:43.095Z,56.59
2019-02-26T03:11:14.427Z,56.49
2019-02-26T03:11:46.467Z,57.63
2019-02-26T03:12:18.595Z,58.45
2019-02-26T03:12:53.790Z,57.33
2019-02-26T03:13:24.913Z,58.41
2019-02-26T03:13:55.762Z,57.92
2019-02-26T03:14:26.959Z,57.75
2019-02-26T03:14:59.861Z,56.62
2019-02-26T03:15:33.623Z,56.17
2019-02-26T03:16:04.075Z,55.85
2019-02-26T03:16:35.501Z,56.79
2019-02-26T03:17:09.081Z,56.54
2019-02-26T03:17:39.675Z,56.54
2019-02-26T03:18:12.523Z,57.24
2019-02-26T03:18:43.840Z,56.22
2019-02-26T03:19:16.931Z,56.84
2019-02-26T03:19:47.980Z,56.42
2019-02-26T03:20:19.180Z,56.43
2019-02-26T03:20:51.433Z,56.29
2019-02-26T03:21:24.764Z,55.02
2019-02-26T03:21:56.262Z,55.44
2019-02-26T03:22:27.536Z,55.76
2019-02-26T03:22:58.787Z,54.34
2019-02-26T03:23:31.308Z,54.70
2019-02-26T03:24:05.630Z,54.19
2019-02-26T03:24:35.996Z,56.00
2019-02-26T03:25:07.140Z,56.65
2019-02-26T03:25:38.356Z,55.30
2019-02-26T03:26:12.562Z,55.00
2019-02-26T03:26:42.503Z,54.56
2019-02-26T03:27:13.714Z,54.40
2019-02-26T03:27:44.953Z,53.95
2019-02-26T03:28:16.162Z,53.48
2019-02-26T03:28:48.150Z,53.70
2019-02-26T03:29:20.306Z,54.30
2019-02-26T03:29:52.541Z,54.77
2019-02-26T03:30:31.973Z,54.87
2019-02-26T03:30:57.464Z,55.04
2019-02-26T03:31:31.040Z,54.89
2019-02-26T03:32:01.615Z,57.16
2019-02-26T03:32:36.075Z,56.00
2019-02-26T03:33:05.751Z,54.25
2019-02-26T03:33:36.940Z,55.65
2019-02-26T03:34:10.597Z,54.42
2019-02-26T03:34:41.149Z,53.99
2019-02-26T03:35:13.224Z,55.46
2019-02-26T03:35:45.336Z,55.75
2019-02-26T03:36:17.183Z,56.29
2019-02-26T03:36:49.470Z,56.18
2019-02-26T03:37:20.688Z,55.44
2019-02-26T03:37:54.875Z,53.47
2019-02-26T03:38:26.965Z,53.12
2019-02-26T03:39:00.708Z,54.37
2019-02-26T03:39:30.710Z,54.04
2019-02-26T03:40:03.654Z,53.04
2019-02-26T03:40:36.149Z,53.85
2019-02-26T03:41:07.564Z,53.12
2019-02-26T03:41:38.805Z,54.30
2019-02-26T03:42:10.579Z,53.88
2019-02-26T03:42:43.465Z,53.56
2019-02-26T03:43:16.289Z,53.90
2019-02-26T03:43:47.652Z,53.63
2019-02-26T03:44:18.875Z,52.02
2019-02-26T03:44:50.127Z,51.94
2019-02-26T03:45:24.683Z,53.08
2019-02-26T03:45:54.312Z,52.63
2019-02-26T03:46:25.527Z,52.10
2019-02-26T03:46:56.752Z,52.09
2019-02-26T03:47:27.954Z,52.59
2019-02-26T03:47:59.215Z,52.68
2019-02-26T03:48:30.424Z,52.82
2019-02-26T03:49:02.727Z,52.70
2019-02-26T03:49:34.590Z,53.16
2019-02-26T03:50:08.528Z,53.81
2019-02-26T03:50:38.736Z,53.51
2019-02-26T03:51:10.006Z,54.03
2019-02-26T03:51:41.210Z,55.35
2019-02-26T03:52:15.316Z,54.33
2019-02-26T03:52:45.372Z,54.13
2019-02-26T03:53:16.752Z,54.88
2019-02-26T03:53:47.954Z,56.06
2019-02-26T03:54:19.161Z,56.40
2019-02-26T03:54:50.762Z,53.92
2019-02-26T03:55:22.064Z,53.72
2019-02-26T03:55:53.263Z,54.41
2019-02-26T03:56:24.474Z,54.90
2019-02-26T03:56:55.679Z,54.67
2019-02-26T03:57:26.882Z,54.29
2019-02-26T03:58:01.426Z,54.64
2019-02-26T03:58:31.071Z,53.11
2019-02-26T03:59:05.756Z,52.88
2019-02-26T03:59:35.218Z,53.95
2019-02-26T04:00:08.779Z,52.90
2019-02-26T04:00:41.714Z,52.83
2019-02-26T04:01:13.653Z,54.00
2019-02-26T04:01:45.277Z,54.05
2019-02-26T04:02:18.110Z,53.02
2019-02-26T04:02:51.813Z,53.88
2019-02-26T04:03:22.356Z,53.96
2019-02-26T04:03:54.655Z,53.80
2019-02-26T04:04:30.448Z,53.43
2019-02-26T04:05:02.242Z,54.32
2019-02-26T04:05:32.392Z,54.32
2019-02-26T04:06:06.685Z,54.28
2019-02-26T04:06:38.431Z,54.35
2019-02-26T04:07:10.661Z,54.95
2019-02-26T04:07:41.936Z,55.48
2019-02-26T04:08:13.269Z,55.05
2019-02-26T04:08:46.029Z,55.19
2019-02-26T04:09:19.607Z,55.00
2019-02-26T04:09:53.122Z,55.41
2019-02-26T04:10:23.364Z,55.64
2019-02-26T04:10:55.958Z,55.75
2019-02-26T04:11:27.850Z,56.07
2019-02-26T04:11:59.090Z,56.30
2019-02-26T04:12:30.316Z,56.57
2019-02-26T04:13:01.557Z,56.75
2019-02-26T04:13:32.807Z,56.48
2019-02-26T04:14:04.032Z,56.22
2019-02-26T04:14:35.275Z,57.00
2019-02-26T04:15:06.459Z,57.12
2019-02-26T04:15:38.779Z,57.04
2019-02-26T04:16:09.962Z,57.20
2019-02-26T04:16:43.613Z,58.10
2019-02-26T04:17:14.125Z,57.68
2019-02-26T04:17:45.340Z,57.37
2019-02-26T04:18:18.467Z,56.02
2019-02-26T04:18:51.959Z,56.17
2019-02-26T04:19:26.138Z,56.50
2019-02-26T04:19:55.587Z,56.43
2019-02-26T04:20:27.866Z,57.69
2019-02-26T04:21:03.208Z,56.86
2019-02-26T04:21:32.175Z,57.87
2019-02-26T04:22:03.380Z,56.94
2019-02-26T04:22:34.630Z,56.86
2019-02-26T04:23:05.824Z,57.03
2019-02-26T04:23:38.943Z,56.98
2019-02-26T04:24:11.425Z,57.11
2019-02-26T04:24:42.705Z,57.69
2019-02-26T04:25:13.915Z,57.38
2019-02-26T04:25:45.144Z,57.53
2019-02-26T04:26:20.872Z,57.76
2019-02-26T04:26:49.268Z,57.66
2019-02-26T04:27:20.498Z,57.94
2019-02-26T04:27:51.710Z,58.22
2019-02-26T04:28:27.365Z,58.42
2019-02-26T04:28:57.309Z,58.79
2019-02-26T04:29:28.759Z,58.97
2019-02-26T04:29:59.989Z,58.72
2019-02-26T04:30:36.608Z,58.79
2019-02-26T04:31:04.177Z,58.82
2019-02-26T04:31:35.387Z,58.46
2019-02-26T04:32:06.629Z,58.69
2019-02-26T04:32:40.750Z,58.56
2019-02-26T04:33:11.650Z,58.02
2019-02-26T04:33:43.713Z,58.11
2019-02-26T04:34:14.967Z,58.16
2019-02-26T04:34:46.206Z,58.33
2019-02-26T04:35:17.411Z,58.51
2019-02-26T04:35:50.128Z,58.73
2019-02-26T04:36:22.373Z,58.71
2019-02-26T04:36:53.739Z,58.93
2019-02-26T04:37:27.263Z,59.11
2019-02-26T04:37:59.061Z,58.91
2019-02-26T04:38:31.143Z,58.83
2019-02-26T04:39:02.577Z,58.76
2019-02-26T04:39:34.436Z,58.73
2019-02-26T04:40:10.180Z,58.87
2019-02-26T04:40:40.953Z,58.79
2019-02-26T04:41:15.719Z,58.71
2019-02-26T04:41:45.223Z,58.50
2019-02-26T04:42:18.188Z,58.83
2019-02-26T04:42:49.452Z,58.92
2019-02-26T04:43:20.665Z,58.71
2019-02-26T04:43:54.562Z,58.87
2019-02-26T04:44:26.868Z,58.54
2019-02-26T04:45:00.519Z,58.96
2019-02-26T04:45:30.710Z,58.14
2019-02-26T04:46:04.947Z,58.34
2019-02-26T04:46:36.903Z,58.79
2019-02-26T04:47:07.840Z,59.28
2019-02-26T04:47:40.748Z,58.60
2019-02-26T04:48:14.709Z,60.02
2019-02-26T04:48:44.917Z,57.40
2019-02-26T04:49:16.158Z,56.68
2019-02-26T04:49:47.470Z,56.55
2019-02-26T04:50:22.987Z,56.22
2019-02-26T04:50:51.641Z,56.30
2019-02-26T04:51:22.863Z,56.70
2019-02-26T04:51:54.076Z,57.00
2019-02-26T04:52:25.294Z,56.61
2019-02-26T04:52:59.741Z,56.91
2019-02-26T04:53:31.312Z,56.53
2019-02-26T04:54:02.402Z,56.62
2019-02-26T04:54:35.927Z,56.79
2019-02-26T04:55:06.539Z,56.88
2019-02-26T04:55:41.384Z,57.10
2019-02-26T04:56:12.796Z,57.00
2019-02-26T04:56:45.108Z,57.33
2019-02-26T04:57:16.707Z,56.70
2019-02-26T04:57:50.607Z,57.15
2019-02-26T04:58:22.684Z,57.65
2019-02-26T04:58:54.000Z,57.53
2019-02-26T04:59:25.335Z,56.12
2019-02-26T04:59:59.163Z,56.16
2019-02-26T05:00:32.186Z,56.42
2019-02-26T05:01:04.231Z,55.92
2019-02-26T05:01:35.394Z,56.86
2019-02-26T05:02:06.593Z,57.58
2019-02-26T05:02:37.851Z,56.04
2019-02-26T05:03:11.819Z,56.58
2019-02-26T05:03:41.992Z,57.07
2019-02-26T05:04:13.206Z,55.50
2019-02-26T05:04:44.437Z,56.61
2019-02-26T05:05:15.663Z,56.96
2019-02-26T05:05:51.404Z,56.64
2019-02-26T05:06:19.802Z,55.34
2019-02-26T05:06:51.038Z,56.21
2019-02-26T05:07:22.245Z,55.42
2019-02-26T05:07:53.500Z,55.88
2019-02-26T05:08:24.740Z,55.55
2019-02-26T05:08:59.330Z,55.46
2019-02-26T05:09:30.598Z,55.40
2019-02-26T05:10:02.315Z,55.70
2019-02-26T05:10:35.760Z,55.29
2019-02-26T05:11:06.994Z,55.66
2019-02-26T05:11:40.655Z,55.70
2019-02-26T05:12:11.141Z,55.95
2019-02-26T05:12:42.337Z,56.54
2019-02-26T05:13:13.576Z,56.50
2019-02-26T05:13:44.804Z,56.44
2019-02-26T05:14:21.006Z,57.08
2019-02-26T05:14:48.958Z,57.00
2019-02-26T05:15:22.663Z,57.09
2019-02-26T05:15:53.185Z,57.06
2019-02-26T05:16:28.538Z,56.96
2019-02-26T05:16:57.323Z,56.72
2019-02-26T05:17:30.787Z,56.80
2019-02-26T05:18:01.453Z,56.64
2019-02-26T05:18:34.517Z,56.27
2019-02-26T05:19:05.644Z,55.97
2019-02-26T05:19:39.249Z,55.50
2019-02-26T05:20:12.857Z,55.36
2019-02-26T05:20:47.220Z,55.72
2019-02-26T05:21:15.699Z,55.13
2019-02-26T05:21:46.887Z,54.89
2019-02-26T05:22:19.828Z,55.35
2019-02-26T05:22:52.058Z,54.36
2019-02-26T05:23:25.905Z,53.85
2019-02-26T05:23:57.671Z,54.10
2019-02-26T05:24:29.840Z,53.68
2019-02-26T05:25:01.057Z,53.17
2019-02-26T05:25:34.394Z,53.18
2019-02-26T05:26:08.097Z,53.39
2019-02-26T05:26:38.230Z,53.23
2019-02-26T05:27:11.831Z,53.60
2019-02-26T05:27:45.226Z,53.88
2019-02-26T05:28:17.488Z,54.75
2019-02-26T05:28:49.721Z,52.76
2019-02-26T05:29:21.255Z,52.57
2019-02-26T05:29:54.754Z,52.46
2019-02-26T05:30:25.383Z,52.84
2019-02-26T05:30:56.618Z,53.36
2019-02-26T05:31:29.618Z,53.60
2019-02-26T05:32:03.597Z,53.62
2019-02-26T05:32:35.517Z,53.38
2019-02-26T05:33:06.702Z,53.70
2019-02-26T05:33:37.967Z,53.77
2019-02-26T05:34:09.187Z,53.79
2019-02-26T05:34:42.785Z,53.87
2019-02-26T05:35:14.494Z,54.13
2019-02-26T05:35:48.863Z,54.63
2019-02-26T05:36:19.267Z,54.34
2019-02-26T05:36:50.482Z,54.13
2019-02-26T05:37:21.723Z,53.98
2019-02-26T05:37:55.497Z,54.01
2019-02-26T05:38:26.571Z,53.94
2019-02-26T05:39:00.347Z,54.20
2019-02-26T05:39:31.898Z,53.72
2019-02-26T05:40:03.108Z,53.71
2019-02-26T05:40:37.484Z,53.71
2019-02-26T05:41:07.289Z,53.92
2019-02-26T05:41:40.362Z,53.96
2019-02-26T05:42:11.417Z,53.76
2019-02-26T05:42:42.679Z,53.94
2019-02-26T05:43:13.912Z,54.46
2019-02-26T05:43:49.450Z,54.12
2019-02-26T05:44:18.088Z,53.99
2019-02-26T05:44:53.763Z,54.15
2019-02-26T05:45:23.829Z,54.29
2019-02-26T05:45:58.106Z,54.82
2019-02-26T05:46:29.510Z,53.69
2019-02-26T05:47:01.714Z,53.58
2019-02-26T05:47:33.030Z,53.71
2019-02-26T05:48:04.271Z,53.37
2019-02-26T05:48:37.233Z,53.51
2019-02-26T05:49:12.526Z,53.62
2019-02-26T05:49:43.399Z,53.95
2019-02-26T05:50:16.750Z,54.18
2019-02-26T05:50:47.367Z,53.77
2019-02-26T05:51:18.636Z,54.20
2019-02-26T05:51:49.847Z,53.80
2019-02-26T05:52:21.925Z,53.75
2019-02-26T05:52:58.020Z,54.16
2019-02-26T05:53:27.035Z,54.62
2019-02-26T05:54:01.768Z,54.32
2019-02-26T05:54:31.202Z,55.25
2019-02-26T05:55:02.399Z,54.09
2019-02-26T05:55:33.616Z,53.14
2019-02-26T05:56:04.820Z,53.44
2019-02-26T05:56:37.222Z,53.45
2019-02-26T05:57:15.310Z,54.07
2019-02-26T05:57:42.088Z,54.25
2019-02-26T05:58:15.815Z,53.32
2019-02-26T05:58:46.989Z,53.33
2019-02-26T05:59:21.308Z,54.49
2019-02-26T05:59:51.317Z,53.39
2019-02-26T06:00:25.533Z,53.24
2019-02-26T06:00:55.495Z,53.30
2019-02-26T06:01:27.818Z,55.19
2019-02-26T06:01:59.130Z,53.49
2019-02-26T06:02:30.343Z,53.29
2019-02-26T06:03:03.070Z,53.19
2019-02-26T06:03:34.509Z,53.62
2019-02-26T06:04:07.669Z,53.26
2019-02-26T06:04:41.027Z,53.39
2019-02-26T06:05:12.331Z,53.25
2019-02-26T06:05:46.517Z,53.27
2019-02-26T06:06:17.477Z,53.27
2019-02-26T06:06:51.071Z,53.74
2019-02-26T06:07:24.210Z,53.03
2019-02-26T06:07:54.644Z,53.13
2019-02-26T06:08:29.412Z,53.31
2019-02-26T06:08:59.865Z,53.43
2019-02-26T06:09:33.779Z,53.06
2019-02-26T06:10:04.757Z,52.32
2019-02-26T06:10:35.967Z,52.46
2019-02-26T06:11:07.184Z,52.61
2019-02-26T06:11:40.006Z,54.33
2019-02-26T06:12:11.448Z,52.69
2019-02-26T06:12:44.639Z,52.28
2019-02-26T06:13:15.842Z,52.97
2019-02-26T06:13:47.044Z,51.57
2019-02-26T06:14:18.255Z,52.04
2019-02-26T06:14:51.365Z,51.84
2019-02-26T06:15:23.113Z,51.71
2019-02-26T06:15:58.639Z,52.73
2019-02-26T06:16:29.052Z,52.84
2019-02-26T06:17:01.256Z,51.32
2019-02-26T06:17:32.519Z,50.96
2019-02-26T06:18:03.770Z,51.38
2019-02-26T06:18:34.994Z,51.86
2019-02-26T06:19:08.306Z,52.53
2019-02-26T06:19:40.227Z,49.95
2019-02-26T06:20:12.121Z,49.76
2019-02-26T06:20:43.337Z,51.11
2019-02-26T06:21:16.523Z,51.79
2019-02-26T06:21:49.720Z,50.61
2019-02-26T06:22:23.285Z,49.38
2019-02-26T06:22:53.423Z,49.18
2019-02-26T06:23:25.527Z,50.49
2019-02-26T06:23:57.563Z,48.29
2019-02-26T06:24:29.713Z,48.93
2019-02-26T06:25:04.067Z,48.49
2019-02-26T06:25:36.857Z,48.35
2019-02-26T06:26:13.200Z,48.77
2019-02-26T06:26:43.026Z,48.86
2019-02-26T06:27:18.277Z,49.53
2019-02-26T06:27:46.996Z,49.58
2019-02-26T06:28:20.444Z,49.72
2019-02-26T06:28:52.830Z,48.65
2019-02-26T06:29:24.760Z,48.21
2019-02-26T06:29:58.131Z,47.93
2019-02-26T06:30:30.173Z,50.00
2019-02-26T06:31:01.420Z,50.01
2019-02-26T06:31:32.659Z,49.99
2019-02-26T06:32:05.311Z,48.78
2019-02-26T06:32:39.151Z,49.93
2019-02-26T06:33:11.616Z,48.36
2019-02-26T06:33:43.715Z,47.70
2019-02-26T06:34:16.349Z,47.78
2019-02-26T06:34:48.686Z,46.81
2019-02-26T06:35:19.954Z,47.28
2019-02-26T06:35:51.191Z,46.49
2019-02-26T06:36:23.474Z,46.02
2019-02-26T06:36:55.401Z,47.51
2019-02-26T06:37:28.562Z,47.58
2019-02-26T06:38:01.971Z,48.41
2019-02-26T06:38:33.286Z,48.62
2019-02-26T06:39:06.008Z,49.65
2019-02-26T06:39:37.420Z,48.53
2019-02-26T06:40:08.629Z,46.89
2019-02-26T06:40:41.781Z,45.86
2019-02-26T06:41:12.815Z,46.07
2019-02-26T06:41:45.003Z,46.29
2019-02-26T06:42:17.016Z,45.73
2019-02-26T06:42:48.279Z,46.41
2019-02-26T06:43:19.500Z,46.45
2019-02-26T06:43:52.498Z,45.04
2019-02-26T06:44:23.680Z,44.04
2019-02-26T06:44:55.026Z,44.25
2019-02-26T06:45:26.284Z,44.40
2019-02-26T06:45:57.508Z,44.47
2019-02-26T06:46:29.446Z,45.14
2019-02-26T06:47:02.630Z,44.85
2019-02-26T06:47:34.617Z,45.47
2019-02-26T06:48:05.892Z,46.88
2019-02-26T06:48:37.115Z,46.83
2019-02-26T06:49:08.317Z,46.03
2019-02-26T06:49:41.418Z,44.62
2019-02-26T06:50:13.241Z,45.46
2019-02-26T06:50:45.471Z,45.91
2019-02-26T06:51:16.683Z,44.99
2019-02-26T06:51:49.785Z,46.37
2019-02-26T06:52:20.843Z,46.54